Weather History for Glenwood, MN

Change the Weather History Date:

Friday, June 29, 2012

  Actual Average Record
Temperature  
Mean Temperature 71 °F -  
Max Temperature 82 °F 78 °F 94 °F (1961)
Min Temperature 60 °F 56 °F 45 °F (1950)
Cooling Degree Days 6    
Growing Degree Days 21 (Base 50)    
Moisture  
Dew Point 59 °F    
Average Humidity 63    
Maximum Humidity 88    
Minimum Humidity 39    
Precipitation  
Precipitation 0.00 in - - ()
Sea Level Pressure  
Sea Level Pressure 29.89 in    
Wind  
Wind Speed 4 mph (WSW)    
Max Wind Speed 10 mph    
Max Gust Speed 16 mph    
Visibility 10 miles    
Events      
Averages and records for this station are not official NWS values.
T = Trace of Precipitation, MM = Missing Value Source: NWS Daily Summary

Daily Weather History Graph

Daily Weather History Graph

Search for Another Location

Airport:

Trip Planner

Search our weather history database for the weather conditions in past years. The results will help you decide how hot, cold, wet, or windy it might be!

Date:

Astronomy

Jun. 29, 2012 Rise Set
Actual Time 5:35 AM CDT 9:14 PM CDT
Civil Twilight 4:57 AM CDT 9:52 PM CDT
Nautical Twilight 4:06 AM CDT 10:43 PM CDT
Astronomical Twilight 2:57 AM CDT 11:51 PM CDT
Moon 4:56 PM CDT (6/29) 1:54 AM CDT (6/29)
Length of Visible Light 16h 55m
Length of Day
15h 39m
Waxing Gibbous, 78% of the Moon is Illuminated
Jun 29
Waxing Gibbous
Jul 3
Full
Jul 10
Last Quarter
Jul 18
New
Jul 26
First Quarter

Hourly Weather History & Observations

Time (CDT) Temp. Heat Index Dew Point Humidity Pressure Visibility Wind Dir Wind Speed Gust Speed Precip Events Conditions
12:14 AM 64.4 °F - 53.6 °F 68% 29.94 in 10.0 mi SW 5.8 mph - N/A   Clear
12:34 AM 62.6 °F - 55.4 °F 77% 29.94 in 10.0 mi SW 5.8 mph - N/A   Clear
12:53 AM 62.6 °F - 55.4 °F 77% 29.94 in 10.0 mi SW 5.8 mph - N/A   Clear
1:14 AM 62.6 °F - 55.4 °F 77% 29.93 in 10.0 mi SW 3.5 mph - N/A   Clear
1:33 AM 64.4 °F - 53.6 °F 68% 29.93 in 10.0 mi Calm Calm - N/A   Clear
1:54 AM 64.4 °F - 53.6 °F 68% 29.92 in 10.0 mi Calm Calm - N/A   Clear
2:14 AM 64.4 °F - 51.8 °F 64% 29.92 in 10.0 mi South 3.5 mph - N/A   Clear
2:33 AM 64.4 °F - 51.8 °F 64% 29.92 in 10.0 mi South 4.6 mph - N/A   Clear
2:54 AM 62.6 °F - 53.6 °F 72% 29.92 in 10.0 mi South 5.8 mph - N/A   Clear
3:13 AM 62.6 °F - 53.6 °F 72% 29.92 in 10.0 mi SSW 3.5 mph - N/A   Clear
3:34 AM 62.6 °F - 53.6 °F 72% 29.92 in 10.0 mi SSW 3.5 mph - N/A   Clear
3:54 AM 62.6 °F - 51.8 °F 68% 29.91 in 10.0 mi SSW 4.6 mph - N/A   Clear
4:14 AM 60.8 °F - 53.6 °F 77% 29.91 in 10.0 mi SSW 4.6 mph - N/A   Clear
4:34 AM 60.8 °F - 53.6 °F 77% 29.91 in 10.0 mi SW 3.5 mph - N/A   Clear
4:54 AM 62.6 °F - 53.6 °F 72% 29.91 in 10.0 mi Calm Calm - N/A   Clear
5:14 AM 62.6 °F - 53.6 °F 72% 29.91 in 10.0 mi Calm Calm - N/A   Clear
5:33 AM 62.6 °F - 53.6 °F 72% 29.91 in 10.0 mi Calm Calm - N/A   Clear
5:54 AM 60.8 °F - 53.6 °F 77% 29.91 in 10.0 mi Calm Calm - N/A   Clear
6:34 AM 60.8 °F - 53.6 °F 77% 29.91 in 10.0 mi Calm Calm - N/A   Clear
7:14 AM 66.2 °F - 57.2 °F 73% 29.91 in 10.0 mi Calm Calm - N/A   Clear
7:34 AM 68.0 °F - 57.2 °F 68% 29.92 in 10.0 mi Calm Calm - N/A   Clear
7:54 AM 68.0 °F - 59.0 °F 73% 29.93 in 10.0 mi Calm Calm - N/A   Clear
8:14 AM 71.6 °F - 55.4 °F 57% 29.94 in 10.0 mi Calm Calm - N/A   Clear
8:34 AM 71.6 °F - 55.4 °F 57% 29.93 in 10.0 mi SW 5.8 mph - N/A   Clear
8:53 AM 73.4 °F - 55.4 °F 53% 29.91 in 10.0 mi WSW 4.6 mph - N/A   Clear
9:14 AM 75.2 °F - 53.6 °F 47% 29.90 in 10.0 mi WSW 3.5 mph - N/A   Clear
9:34 AM 75.2 °F - 53.6 °F 47% 29.90 in 10.0 mi West 4.6 mph - N/A   Clear
9:54 AM 77.0 °F - 51.8 °F 41% 29.90 in 10.0 mi West 4.6 mph - N/A   Clear
10:14 AM 78.8 °F - 51.8 °F 39% 29.90 in 10.0 mi West 3.5 mph - N/A   Clear
10:33 AM 80.6 °F 80.3 °F 53.6 °F 39% 29.90 in 10.0 mi West 3.5 mph - N/A   Clear
10:54 AM 80.6 °F 80.5 °F 55.4 °F 42% 29.90 in 7.0 mi WSW 6.9 mph - N/A   Clear
11:14 AM 80.6 °F 80.5 °F 55.4 °F 42% 29.90 in 10.0 mi WSW 8.1 mph - N/A   Clear
11:33 AM 80.6 °F 80.8 °F 57.2 °F 45% 29.92 in 10.0 mi WSW 5.8 mph - N/A   Clear
11:53 AM 80.6 °F 81.1 °F 59.0 °F 48% 29.93 in 10.0 mi SW 10.4 mph - N/A   Clear
12:13 PM 80.6 °F 81.5 °F 60.8 °F 51% 29.94 in 10.0 mi WSW 6.9 mph 16.1 mph N/A   Clear
12:34 PM 82.4 °F 82.5 °F 59.0 °F 45% 29.93 in 10.0 mi SSW 8.1 mph - N/A   Clear
12:53 PM 80.6 °F 81.1 °F 59.0 °F 48% 29.92 in 10.0 mi SSW 6.9 mph - N/A   Clear
1:14 PM 82.4 °F 82.9 °F 60.8 °F 48% 29.91 in 10.0 mi WSW 6.9 mph - N/A   Clear
1:33 PM 82.4 °F 82.5 °F 59.0 °F 45% 29.90 in 10.0 mi WSW 8.1 mph - N/A   Clear
1:54 PM 80.6 °F 81.5 °F 60.8 °F 51% 29.90 in 10.0 mi WSW 5.8 mph - N/A   Clear
2:14 PM 80.6 °F 81.5 °F 60.8 °F 51% 29.89 in 10.0 mi WSW 9.2 mph - N/A   Clear
2:33 PM 80.6 °F 81.5 °F 60.8 °F 51% 29.88 in 10.0 mi WSW 6.9 mph - N/A   Clear
2:54 PM 82.4 °F 82.9 °F 60.8 °F 48% 29.88 in 10.0 mi West 9.2 mph - N/A   Clear
3:13 PM 80.6 °F 81.5 °F 60.8 °F 51% 29.87 in 10.0 mi West 9.2 mph - N/A   Clear
3:34 PM 80.6 °F 81.8 °F 62.6 °F 54% 29.87 in 10.0 mi West 8.1 mph - N/A   Clear
3:54 PM 80.6 °F 81.8 °F 62.6 °F 54% 29.87 in 10.0 mi West 5.8 mph - N/A   Clear
4:13 PM 80.6 °F 81.8 °F 62.6 °F 54% 29.85 in 10.0 mi WNW 3.5 mph - N/A   Clear
4:34 PM 82.4 °F 83.4 °F 62.6 °F 51% 29.87 in 10.0 mi SW 5.8 mph - N/A   Clear
4:54 PM 80.6 °F 81.8 °F 62.6 °F 54% 29.87 in 7.0 mi WSW 5.8 mph - N/A   Clear
5:13 PM 80.6 °F 81.8 °F 62.6 °F 54% 29.87 in 10.0 mi WNW 5.8 mph - N/A   Clear
5:33 PM 80.6 °F 82.3 °F 64.4 °F 58% 29.86 in 10.0 mi Calm Calm - N/A   Clear
5:54 PM 80.6 °F 81.8 °F 62.6 °F 54% 29.85 in 10.0 mi Calm Calm - N/A   Clear
6:13 PM 78.8 °F - 62.6 °F 57% 29.84 in 10.0 mi NNW 5.8 mph - N/A   Clear
6:34 PM 78.8 °F - 64.4 °F 61% 29.84 in 10.0 mi NW 3.5 mph - N/A   Clear
6:54 PM 80.6 °F 81.8 °F 62.6 °F 54% 29.85 in 10.0 mi Calm Calm - N/A   Clear
7:13 PM 80.6 °F 82.3 °F 64.4 °F 58% 29.84 in 10.0 mi SW 4.6 mph - N/A   Clear
7:33 PM 78.8 °F - 64.4 °F 61% 29.83 in 10.0 mi WSW 3.5 mph - N/A   Clear
7:53 PM 75.2 °F - 66.2 °F 73% 29.83 in 10.0 mi WSW 4.6 mph - N/A   Clear
8:14 PM 77.0 °F - 66.2 °F 69% 29.83 in 10.0 mi SSW 3.5 mph - N/A   Clear
8:33 PM 75.2 °F - 66.2 °F 73% 29.84 in 10.0 mi SSW 4.6 mph - N/A   Clear
8:54 PM 73.4 °F - 66.2 °F 78% 29.84 in 10.0 mi SW 4.6 mph - N/A   Clear
9:13 PM 71.6 °F - 64.4 °F 78% 29.84 in 10.0 mi WSW 5.8 mph - N/A   Clear
9:33 PM 71.6 °F - 64.4 °F 78% 29.84 in 10.0 mi WSW 5.8 mph - N/A   Clear
9:54 PM 69.8 °F - 64.4 °F 83% 29.85 in 10.0 mi North 5.8 mph - N/A   Clear
10:14 PM 71.6 °F - 64.4 °F 78% 29.85 in 10.0 mi NW 3.5 mph - N/A   Clear
10:34 PM 69.8 °F - 64.4 °F 83% 29.86 in 10.0 mi Calm Calm - N/A   Clear
10:54 PM 69.8 °F - 64.4 °F 83% 29.86 in 10.0 mi Calm Calm - N/A   Clear
11:13 PM 69.8 °F - 64.4 °F 83% 29.86 in 10.0 mi NW 3.5 mph - N/A   Clear
11:34 PM 66.2 °F - 62.6 °F 88% 29.86 in 10.0 mi NW 3.5 mph - N/A   Clear
11:53 PM 68.0 °F - 62.6 °F 83% 29.86 in 10.0 mi NW 5.8 mph - N/A   Clear